sensor_id;sensor_type;location;lat;lon;timestamp;pressure;altitude;pressure_sealevel;temperature
79714;BMP280;69206;51.420;5.400;2023-05-10T00:01:27;100802.38;;;13.52
79714;BMP280;69206;51.420;5.400;2023-05-10T00:03:52;100832.59;;;13.73
79714;BMP280;69206;51.420;5.400;2023-05-10T00:06:18;100831.91;;;13.63
79714;BMP280;69206;51.420;5.400;2023-05-10T00:08:44;100841.31;;;13.66
79714;BMP280;69206;51.420;5.400;2023-05-10T00:11:10;100834.94;;;13.76
79714;BMP280;69206;51.420;5.400;2023-05-10T00:13:35;100834.31;;;13.82
79714;BMP280;69206;51.420;5.400;2023-05-10T00:16:01;100820.09;;;13.75
79714;BMP280;69206;51.420;5.400;2023-05-10T00:18:26;100818.44;;;13.74
79714;BMP280;69206;51.420;5.400;2023-05-10T00:20:52;100832.66;;;13.81
79714;BMP280;69206;51.420;5.400;2023-05-10T00:23:17;100827.41;;;13.89
79714;BMP280;69206;51.420;5.400;2023-05-10T00:25:43;100808.91;;;13.81
79714;BMP280;69206;51.420;5.400;2023-05-10T00:28:08;100827.06;;;13.92
79714;BMP280;69206;51.420;5.400;2023-05-10T00:30:33;100831.03;;;14.04
79714;BMP280;69206;51.420;5.400;2023-05-10T00:32:59;100833.03;;;14.10
79714;BMP280;69206;51.420;5.400;2023-05-10T00:35:24;100832.53;;;13.99
79714;BMP280;69206;51.420;5.400;2023-05-10T00:37:50;100833.72;;;14.12
79714;BMP280;69206;51.420;5.400;2023-05-10T00:40:15;100829.06;;;14.14
79714;BMP280;69206;51.420;5.400;2023-05-10T00:42:41;100829.56;;;13.94
79714;BMP280;69206;51.420;5.400;2023-05-10T00:45:07;100791.50;;;13.55
79714;BMP280;69206;51.420;5.400;2023-05-10T00:47:32;100824.84;;;13.72
79714;BMP280;69206;51.420;5.400;2023-05-10T00:49:58;100823.75;;;13.90
79714;BMP280;69206;51.420;5.400;2023-05-10T00:52:26;100825.44;;;13.99
79714;BMP280;69206;51.420;5.400;2023-05-10T00:54:52;100797.06;;;14.01
79714;BMP280;69206;51.420;5.400;2023-05-10T00:57:17;100822.34;;;14.28
79714;BMP280;69206;51.420;5.400;2023-05-10T00:59:43;100821.69;;;14.18
79714;BMP280;69206;51.420;5.400;2023-05-10T01:02:08;100822.53;;;14.42
79714;BMP280;69206;51.420;5.400;2023-05-10T01:04:35;100828.09;;;14.31
79714;BMP280;69206;51.420;5.400;2023-05-10T01:07:00;100821.84;;;14.24
79714;BMP280;69206;51.420;5.400;2023-05-10T01:09:27;100822.50;;;14.10
79714;BMP280;69206;51.420;5.400;2023-05-10T01:11:52;100797.53;;;13.81
79714;BMP280;69206;51.420;5.400;2023-05-10T01:14:18;100821.84;;;14.08
79714;BMP280;69206;51.420;5.400;2023-05-10T01:16:45;100825.28;;;14.01
79714;BMP280;69206;51.420;5.400;2023-05-10T01:25:19;100820.47;;;13.96
79714;BMP280;69206;51.420;5.400;2023-05-10T01:33:26;100821.78;;;13.92
79714;BMP280;69206;51.420;5.400;2023-05-10T01:38:47;100814.56;;;14.02
79714;BMP280;69206;51.420;5.400;2023-05-10T01:44:15;100811.91;;;14.02
79714;BMP280;69206;51.420;5.400;2023-05-10T01:46:42;100816.84;;;13.97
79714;BMP280;69206;51.420;5.400;2023-05-10T01:49:11;100812.56;;;13.88
79714;BMP280;69206;51.420;5.400;2023-05-10T01:51:43;100812.34;;;13.74
79714;BMP280;69206;51.420;5.400;2023-05-10T01:54:10;100823.75;;;13.90
79714;BMP280;69206;51.420;5.400;2023-05-10T01:56:37;100818.44;;;13.74
79714;BMP280;69206;51.420;5.400;2023-05-10T01:59:11;100826.63;;;13.63
79714;BMP280;69206;51.420;5.400;2023-05-10T02:01:39;100829.34;;;13.71
79714;BMP280;69206;51.420;5.400;2023-05-10T02:04:07;100792.69;;;13.60
79714;BMP280;69206;51.420;5.400;2023-05-10T02:06:33;100829.41;;;13.95
79714;BMP280;69206;51.420;5.400;2023-05-10T02:09:00;100820.56;;;13.79
79714;BMP280;69206;51.420;5.400;2023-05-10T02:11:27;100827.31;;;13.73
79714;BMP280;69206;51.420;5.400;2023-05-10T02:13:55;100838.41;;;13.77
79714;BMP280;69206;51.420;5.400;2023-05-10T02:16:24;100833.09;;;13.69
79714;BMP280;69206;51.420;5.400;2023-05-10T02:18:52;100811.38;;;13.41
79714;BMP280;69206;51.420;5.400;2023-05-10T02:21:20;100839.09;;;13.45
79714;BMP280;69206;51.420;5.400;2023-05-10T02:23:46;100848.03;;;13.52
79714;BMP280;69206;51.420;5.400;2023-05-10T02:26:14;100851.97;;;13.56
79714;BMP280;69206;51.420;5.400;2023-05-10T02:28:41;100844.03;;;13.40
79714;BMP280;69206;51.420;5.400;2023-05-10T02:31:07;100842.38;;;13.47
79714;BMP280;69206;51.420;5.400;2023-05-10T02:33:35;100810.03;;;13.37
79714;BMP280;69206;51.420;5.400;2023-05-10T02:36:01;100848.16;;;13.51
79714;BMP280;69206;51.420;5.400;2023-05-10T02:38:28;100827.19;;;13.41
79714;BMP280;69206;51.420;5.400;2023-05-10T02:40:55;100845.63;;;13.33
79714;BMP280;69206;51.420;5.400;2023-05-10T02:43:22;100844.34;;;13.45
79714;BMP280;69206;51.420;5.400;2023-05-10T02:45:48;100853.53;;;13.33
79714;BMP280;69206;51.420;5.400;2023-05-10T02:48:14;100851.72;;;13.34
79714;BMP280;69206;51.420;5.400;2023-05-10T02:50:43;100854.91;;;13.45
79714;BMP280;69206;51.420;5.400;2023-05-10T02:53:10;100830.25;;;13.21
79714;BMP280;69206;51.420;5.400;2023-05-10T02:55:38;100821.75;;;13.09
79714;BMP280;69206;51.420;5.400;2023-05-10T02:58:05;100840.22;;;13.17
79714;BMP280;69206;51.420;5.400;2023-05-10T03:00:31;100853.41;;;13.43
79714;BMP280;69206;51.420;5.400;2023-05-10T03:02:57;100857.50;;;13.71
79714;BMP280;69206;51.420;5.400;2023-05-10T03:05:22;100848.78;;;13.78
79714;BMP280;69206;51.420;5.400;2023-05-10T03:07:48;100859.19;;;13.80
79714;BMP280;69206;51.420;5.400;2023-05-10T03:10:14;100854.47;;;13.58
79714;BMP280;69206;51.420;5.400;2023-05-10T03:13:13;100855.81;;;13.62
79714;BMP280;69206;51.420;5.400;2023-05-10T03:18:44;100859.38;;;13.45
79714;BMP280;69206;51.420;5.400;2023-05-10T03:21:13;100831.13;;;13.37
79714;BMP280;69206;51.420;5.400;2023-05-10T03:23:43;100855.63;;;13.30
79714;BMP280;69206;51.420;5.400;2023-05-10T03:26:13;100858.41;;;13.28
79714;BMP280;69206;51.420;5.400;2023-05-10T03:28:41;100862.75;;;13.37
79714;BMP280;69206;51.420;5.400;2023-05-10T03:31:07;100861.41;;;13.25
79714;BMP280;69206;51.420;5.400;2023-05-10T03:33:33;100864.31;;;13.22
79714;BMP280;69206;51.420;5.400;2023-05-10T03:35:58;100868.16;;;13.28
79714;BMP280;69206;51.420;5.400;2023-05-10T03:38:23;100862.63;;;13.21
79714;BMP280;69206;51.420;5.400;2023-05-10T03:40:49;100848.41;;;13.06
79714;BMP280;69206;51.420;5.400;2023-05-10T03:43:15;100876.50;;;13.23
79714;BMP280;69206;51.420;5.400;2023-05-10T03:45:40;100841.34;;;13.07
79714;BMP280;69206;51.420;5.400;2023-05-10T03:48:05;100876.50;;;13.23
79714;BMP280;69206;51.420;5.400;2023-05-10T03:50:31;100878.88;;;13.34
79714;BMP280;69206;51.420;5.400;2023-05-10T03:52:56;100877.41;;;13.32
79714;BMP280;69206;51.420;5.400;2023-05-10T03:55:23;100878.28;;;13.40
79714;BMP280;69206;51.420;5.400;2023-05-10T03:57:48;100879.19;;;13.31
79714;BMP280;69206;51.420;5.400;2023-05-10T04:00:15;100869.97;;;13.27
79714;BMP280;69206;51.420;5.400;2023-05-10T04:02:40;100875.81;;;13.21
79714;BMP280;69206;51.420;5.400;2023-05-10T04:05:06;100882.31;;;13.27
79714;BMP280;69206;51.420;5.400;2023-05-10T04:07:31;100890.38;;;13.25
79714;BMP280;69206;51.420;5.400;2023-05-10T04:09:57;100875.22;;;13.27
79714;BMP280;69206;51.420;5.400;2023-05-10T04:12:22;100892.66;;;13.20
79714;BMP280;69206;51.420;5.400;2023-05-10T04:14:48;100890.44;;;13.16
79714;BMP280;69206;51.420;5.400;2023-05-10T04:17:13;100891.88;;;13.10
79714;BMP280;69206;51.420;5.400;2023-05-10T04:19:38;100887.38;;;13.20
79714;BMP280;69206;51.420;5.400;2023-05-10T04:22:04;100893.63;;;13.19
79714;BMP280;69206;51.420;5.400;2023-05-10T04:24:29;100877.91;;;13.10
79714;BMP280;69206;51.420;5.400;2023-05-10T04:26:55;100881.34;;;13.10
79714;BMP280;69206;51.420;5.400;2023-05-10T04:29:20;100892.34;;;13.06
79714;BMP280;69206;51.420;5.400;2023-05-10T04:31:46;100886.00;;;13.16
79714;BMP280;69206;51.420;5.400;2023-05-10T04:34:11;100892.59;;;13.12
79714;BMP280;69206;51.420;5.400;2023-05-10T04:36:36;100890.25;;;13.09
79714;BMP280;69206;51.420;5.400;2023-05-10T04:39:03;100887.59;;;13.01
79714;BMP280;69206;51.420;5.400;2023-05-10T04:41:29;100886.75;;;13.01
79714;BMP280;69206;51.420;5.400;2023-05-10T04:43:55;100892.50;;;13.04
79714;BMP280;69206;51.420;5.400;2023-05-10T04:46:20;100894.44;;;12.94
79714;BMP280;69206;51.420;5.400;2023-05-10T04:48:46;100896.69;;;12.89
79714;BMP280;69206;51.420;5.400;2023-05-10T04:51:11;100891.44;;;12.89
79714;BMP280;69206;51.420;5.400;2023-05-10T04:53:37;100899.72;;;12.94
79714;BMP280;69206;51.420;5.400;2023-05-10T04:56:02;100901.50;;;12.94
79714;BMP280;69206;51.420;5.400;2023-05-10T04:58:28;100906.16;;;13.00
79714;BMP280;69206;51.420;5.400;2023-05-10T05:00:53;100907.66;;;12.85
79714;BMP280;69206;51.420;5.400;2023-05-10T05:03:19;100911.91;;;12.95
79714;BMP280;69206;51.420;5.400;2023-05-10T05:05:44;100907.91;;;12.91
79714;BMP280;69206;51.420;5.400;2023-05-10T05:08:10;100909.09;;;12.97
79714;BMP280;69206;51.420;5.400;2023-05-10T05:10:35;100906.97;;;13.00
79714;BMP280;69206;51.420;5.400;2023-05-10T05:13:00;100902.94;;;12.88
79714;BMP280;69206;51.420;5.400;2023-05-10T05:15:26;100910.59;;;12.99
79714;BMP280;69206;51.420;5.400;2023-05-10T05:17:51;100912.25;;;13.00
79714;BMP280;69206;51.420;5.400;2023-05-10T05:20:17;100917.19;;;13.03
79714;BMP280;69206;51.420;5.400;2023-05-10T05:22:44;100920.66;;;13.04
79714;BMP280;69206;51.420;5.400;2023-05-10T05:25:10;100894.59;;;12.93
79714;BMP280;69206;51.420;5.400;2023-05-10T05:27:37;100895.06;;;12.96
79714;BMP280;69206;51.420;5.400;2023-05-10T05:30:02;100899.06;;;13.00
79714;BMP280;69206;51.420;5.400;2023-05-10T05:32:29;100929.63;;;13.11
79714;BMP280;69206;51.420;5.400;2023-05-10T05:34:54;100935.22;;;13.08
79714;BMP280;69206;51.420;5.400;2023-05-10T05:37:20;100934.28;;;13.17
79714;BMP280;69206;51.420;5.400;2023-05-10T05:39:49;100934.66;;;13.04
79714;BMP280;69206;51.420;5.400;2023-05-10T05:42:15;100926.75;;;13.04
79714;BMP280;69206;51.420;5.400;2023-05-10T05:44:42;100938.28;;;13.03
79714;BMP280;69206;51.420;5.400;2023-05-10T05:47:08;100936.47;;;13.04
79714;BMP280;69206;51.420;5.400;2023-05-10T05:49:34;100908.63;;;12.84
79714;BMP280;69206;51.420;5.400;2023-05-10T05:52:00;100940.56;;;12.98
79714;BMP280;69206;51.420;5.400;2023-05-10T05:54:26;100913.75;;;12.85
79714;BMP280;69206;51.420;5.400;2023-05-10T05:56:56;100943.53;;;13.03
79714;BMP280;69206;51.420;5.400;2023-05-10T05:59:22;100950.47;;;13.04
79714;BMP280;69206;51.420;5.400;2023-05-10T06:01:48;100946.19;;;13.03
79714;BMP280;69206;51.420;5.400;2023-05-10T06:04:13;100944.66;;;13.18
79714;BMP280;69206;51.420;5.400;2023-05-10T06:06:38;100950.25;;;13.15
79714;BMP280;69206;51.420;5.400;2023-05-10T06:09:04;100947.09;;;13.12
79714;BMP280;69206;51.420;5.400;2023-05-10T06:11:29;100951.28;;;13.22
79714;BMP280;69206;51.420;5.400;2023-05-10T06:13:57;100956.41;;;13.24
79714;BMP280;69206;51.420;5.400;2023-05-10T06:16:22;100960.91;;;13.31
79714;BMP280;69206;51.420;5.400;2023-05-10T06:18:48;100940.94;;;13.21
79714;BMP280;69206;51.420;5.400;2023-05-10T06:21:13;100952.09;;;13.40
79714;BMP280;69206;51.420;5.400;2023-05-10T06:23:40;100947.41;;;13.34
79714;BMP280;69206;51.420;5.400;2023-05-10T06:26:05;100968.50;;;13.52
79714;BMP280;69206;51.420;5.400;2023-05-10T06:28:31;100966.19;;;13.57
79714;BMP280;69206;51.420;5.400;2023-05-10T06:30:57;100957.13;;;13.59
79714;BMP280;69206;51.420;5.400;2023-05-10T06:33:22;100971.00;;;13.61
79714;BMP280;69206;51.420;5.400;2023-05-10T06:35:48;100974.19;;;13.47
79714;BMP280;69206;51.420;5.400;2023-05-10T06:38:13;100964.25;;;13.33
79714;BMP280;69206;51.420;5.400;2023-05-10T06:40:42;100975.38;;;13.45
79714;BMP280;69206;51.420;5.400;2023-05-10T06:43:08;100955.50;;;13.58
79714;BMP280;69206;51.420;5.400;2023-05-10T06:45:33;100971.78;;;13.79
79714;BMP280;69206;51.420;5.400;2023-05-10T06:47:59;100989.00;;;13.91
79714;BMP280;69206;51.420;5.400;2023-05-10T06:50:24;100964.88;;;13.86
79714;BMP280;69206;51.420;5.400;2023-05-10T06:52:50;100984.84;;;13.89
79714;BMP280;69206;51.420;5.400;2023-05-10T06:55:16;100986.00;;;13.86
79714;BMP280;69206;51.420;5.400;2023-05-10T06:57:41;100983.91;;;13.72
79714;BMP280;69206;51.420;5.400;2023-05-10T07:00:07;100996.41;;;13.62
79714;BMP280;69206;51.420;5.400;2023-05-10T07:02:32;100981.88;;;13.58
79714;BMP280;69206;51.420;5.400;2023-05-10T07:04:58;100997.72;;;13.92
79714;BMP280;69206;51.420;5.400;2023-05-10T07:07:24;100960.66;;;13.68
79714;BMP280;69206;51.420;5.400;2023-05-10T07:09:49;101008.78;;;14.21
79714;BMP280;69206;51.420;5.400;2023-05-10T07:12:15;100997.81;;;13.74
79714;BMP280;69206;51.420;5.400;2023-05-10T07:14:41;101000.63;;;13.55
79714;BMP280;69206;51.420;5.400;2023-05-10T07:17:06;101000.06;;;13.69
79714;BMP280;69206;51.420;5.400;2023-05-10T07:19:31;101013.31;;;13.52
79714;BMP280;69206;51.420;5.400;2023-05-10T07:21:58;101014.41;;;13.49
79714;BMP280;69206;51.420;5.400;2023-05-10T07:24:23;101019.53;;;13.68
79714;BMP280;69206;51.420;5.400;2023-05-10T07:26:49;101022.84;;;13.70
79714;BMP280;69206;51.420;5.400;2023-05-10T07:29:15;101000.88;;;13.44
79714;BMP280;69206;51.420;5.400;2023-05-10T07:31:40;101025.78;;;13.67
79714;BMP280;69206;51.420;5.400;2023-05-10T07:34:08;101022.63;;;13.64
79714;BMP280;69206;51.420;5.400;2023-05-10T07:36:33;101018.19;;;13.64
79714;BMP280;69206;51.420;5.400;2023-05-10T07:38:59;101031.09;;;13.75
79714;BMP280;69206;51.420;5.400;2023-05-10T07:41:24;101023.91;;;13.77
79714;BMP280;69206;51.420;5.400;2023-05-10T07:43:49;101022.00;;;13.70
79714;BMP280;69206;51.420;5.400;2023-05-10T07:46:15;101018.63;;;13.77
79714;BMP280;69206;51.420;5.400;2023-05-10T07:48:40;101028.53;;;13.83
79714;BMP280;69206;51.420;5.400;2023-05-10T07:51:06;101028.47;;;13.75
79714;BMP280;69206;51.420;5.400;2023-05-10T07:53:34;101021.25;;;13.77
79714;BMP280;69206;51.420;5.400;2023-05-10T07:56:20;101038.63;;;13.96
79714;BMP280;69206;51.420;5.400;2023-05-10T07:58:45;101040.50;;;13.95
79714;BMP280;69206;51.420;5.400;2023-05-10T08:01:11;101051.28;;;13.84
79714;BMP280;69206;51.420;5.400;2023-05-10T08:03:36;101046.72;;;13.69
79714;BMP280;69206;51.420;5.400;2023-05-10T08:06:01;101029.03;;;13.61
79714;BMP280;69206;51.420;5.400;2023-05-10T08:08:27;101053.91;;;13.84
79714;BMP280;69206;51.420;5.400;2023-05-10T08:10:52;101041.66;;;13.75
79714;BMP280;69206;51.420;5.400;2023-05-10T08:13:17;101054.91;;;13.83
79714;BMP280;69206;51.420;5.400;2023-05-10T08:15:43;101063.53;;;13.93
79714;BMP280;69206;51.420;5.400;2023-05-10T08:18:08;101077.16;;;14.06
79714;BMP280;69206;51.420;5.400;2023-05-10T08:20:34;101072.16;;;14.03
79714;BMP280;69206;51.420;5.400;2023-05-10T08:22:59;101081.75;;;14.04
79714;BMP280;69206;51.420;5.400;2023-05-10T08:25:25;101070.56;;;14.10
79714;BMP280;69206;51.420;5.400;2023-05-10T08:27:50;101078.00;;;14.15
79714;BMP280;69206;51.420;5.400;2023-05-10T08:30:16;101083.84;;;14.26
79714;BMP280;69206;51.420;5.400;2023-05-10T08:32:41;101078.03;;;14.48
79714;BMP280;69206;51.420;5.400;2023-05-10T08:35:06;101065.09;;;14.94
79714;BMP280;69206;51.420;5.400;2023-05-10T08:37:32;101079.03;;;14.47
79714;BMP280;69206;51.420;5.400;2023-05-10T08:39:58;101086.06;;;14.31
79714;BMP280;69206;51.420;5.400;2023-05-10T08:42:25;101081.50;;;14.15
79714;BMP280;69206;51.420;5.400;2023-05-10T08:44:54;101086.13;;;14.21
79714;BMP280;69206;51.420;5.400;2023-05-10T08:47:20;101077.34;;;14.13
79714;BMP280;69206;51.420;5.400;2023-05-10T08:49:47;101061.00;;;14.09
79714;BMP280;69206;51.420;5.400;2023-05-10T08:52:16;101086.53;;;14.34
79714;BMP280;69206;51.420;5.400;2023-05-10T08:54:43;101085.66;;;14.59
79714;BMP280;69206;51.420;5.400;2023-05-10T08:57:09;101088.69;;;14.80
79714;BMP280;69206;51.420;5.400;2023-05-10T08:59:35;101064.88;;;14.72
79714;BMP280;69206;51.420;5.400;2023-05-10T09:02:01;101087.03;;;14.79
79714;BMP280;69206;51.420;5.400;2023-05-10T09:04:27;101026.38;;;14.62
79714;BMP280;69206;51.420;5.400;2023-05-10T09:06:53;101059.06;;;15.26
79714;BMP280;69206;51.420;5.400;2023-05-10T09:09:19;101052.59;;;14.96
79714;BMP280;69206;51.420;5.400;2023-05-10T09:11:45;101088.44;;;15.39
79714;BMP280;69206;51.420;5.400;2023-05-10T09:14:12;101078.06;;;16.24
79714;BMP280;69206;51.420;5.400;2023-05-10T09:16:38;101095.38;;;15.96
79714;BMP280;69206;51.420;5.400;2023-05-10T09:19:03;101079.50;;;15.88
79714;BMP280;69206;51.420;5.400;2023-05-10T09:21:30;101088.22;;;16.51
79714;BMP280;69206;51.420;5.400;2023-05-10T09:23:56;101086.75;;;15.94
79714;BMP280;69206;51.420;5.400;2023-05-10T09:26:24;101095.09;;;15.51
79714;BMP280;69206;51.420;5.400;2023-05-10T09:28:54;101097.56;;;15.36
79714;BMP280;69206;51.420;5.400;2023-05-10T09:31:20;101091.06;;;15.87
79714;BMP280;69206;51.420;5.400;2023-05-10T09:33:47;101098.91;;;16.19
79714;BMP280;69206;51.420;5.400;2023-05-10T09:36:14;101088.97;;;16.37
79714;BMP280;69206;51.420;5.400;2023-05-10T09:38:52;101093.84;;;16.09
79714;BMP280;69206;51.420;5.400;2023-05-10T09:41:22;101100.97;;;16.09
79714;BMP280;69206;51.420;5.400;2023-05-10T09:43:48;101098.59;;;16.22
79714;BMP280;69206;51.420;5.400;2023-05-10T09:46:15;101075.91;;;16.27
79714;BMP280;69206;51.420;5.400;2023-05-10T09:48:43;101073.91;;;16.60
79714;BMP280;69206;51.420;5.400;2023-05-10T09:51:09;101099.00;;;16.41
79714;BMP280;69206;51.420;5.400;2023-05-10T09:53:34;101055.22;;;15.68
79714;BMP280;69206;51.420;5.400;2023-05-10T09:55:59;101099.97;;;16.10
79714;BMP280;69206;51.420;5.400;2023-05-10T09:58:25;101102.38;;;16.35
79714;BMP280;69206;51.420;5.400;2023-05-10T10:00:51;101093.53;;;16.81
79714;BMP280;69206;51.420;5.400;2023-05-10T10:03:21;101105.72;;;16.60
79714;BMP280;69206;51.420;5.400;2023-05-10T10:05:48;101099.97;;;17.32
79714;BMP280;69206;51.420;5.400;2023-05-10T10:08:15;101095.53;;;17.46
79714;BMP280;69206;51.420;5.400;2023-05-10T10:10:41;101096.22;;;17.92
79714;BMP280;69206;51.420;5.400;2023-05-10T10:13:07;101102.16;;;18.08
79714;BMP280;69206;51.420;5.400;2023-05-10T10:15:34;101083.06;;;17.84
79714;BMP280;69206;51.420;5.400;2023-05-10T10:17:59;101076.72;;;17.70
79714;BMP280;69206;51.420;5.400;2023-05-10T10:20:26;101088.25;;;18.35
79714;BMP280;69206;51.420;5.400;2023-05-10T10:22:52;101097.00;;;17.63
79714;BMP280;69206;51.420;5.400;2023-05-10T10:25:18;101106.34;;;17.45
79714;BMP280;69206;51.420;5.400;2023-05-10T10:30:25;101098.75;;;17.20
79714;BMP280;69206;51.420;5.400;2023-05-10T10:33:06;101103.50;;;17.02
79714;BMP280;69206;51.420;5.400;2023-05-10T10:35:36;101104.22;;;16.96
79714;BMP280;69206;51.420;5.400;2023-05-10T10:38:02;101097.31;;;17.32
79714;BMP280;69206;51.420;5.400;2023-05-10T10:40:28;101103.41;;;17.54
79714;BMP280;69206;51.420;5.400;2023-05-10T10:42:55;101102.53;;;17.03
79714;BMP280;69206;51.420;5.400;2023-05-10T10:45:22;101112.16;;;16.96
79714;BMP280;69206;51.420;5.400;2023-05-10T10:47:48;101108.63;;;17.03
79714;BMP280;69206;51.420;5.400;2023-05-10T10:50:14;101111.44;;;17.02
79714;BMP280;69206;51.420;5.400;2023-05-10T10:52:45;101106.38;;;17.23
79714;BMP280;69206;51.420;5.400;2023-05-10T10:55:17;101062.19;;;16.54
79714;BMP280;69206;51.420;5.400;2023-05-10T10:57:57;101119.50;;;16.17
79714;BMP280;69206;51.420;5.400;2023-05-10T11:00:35;101123.91;;;16.32
79714;BMP280;69206;51.420;5.400;2023-05-10T11:03:06;101117.28;;;16.67
79714;BMP280;69206;51.420;5.400;2023-05-10T11:05:45;101105.94;;;16.81
79714;BMP280;69206;51.420;5.400;2023-05-10T11:08:15;101123.66;;;17.11
79714;BMP280;69206;51.420;5.400;2023-05-10T11:11:03;101116.25;;;16.45
79714;BMP280;69206;51.420;5.400;2023-05-10T11:18:39;101112.59;;;16.77
79714;BMP280;69206;51.420;5.400;2023-05-10T11:21:05;101116.63;;;16.95
79714;BMP280;69206;51.420;5.400;2023-05-10T11:23:55;101111.69;;;16.92
79714;BMP280;69206;51.420;5.400;2023-05-10T11:26:22;101119.19;;;16.89
79714;BMP280;69206;51.420;5.400;2023-05-10T11:28:52;101119.38;;;17.10
79714;BMP280;69206;51.420;5.400;2023-05-10T11:31:19;101115.06;;;17.31
79714;BMP280;69206;51.420;5.400;2023-05-10T11:33:46;101114.94;;;17.25
79714;BMP280;69206;51.420;5.400;2023-05-10T11:36:17;101121.53;;;17.28
79714;BMP280;69206;51.420;5.400;2023-05-10T11:38:43;101124.06;;;17.44
79714;BMP280;69206;51.420;5.400;2023-05-10T11:41:09;101122.94;;;16.94
79714;BMP280;69206;51.420;5.400;2023-05-10T11:43:41;101122.44;;;16.99
79714;BMP280;69206;51.420;5.400;2023-05-10T11:46:10;101122.28;;;16.92
79714;BMP280;69206;51.420;5.400;2023-05-10T11:48:36;101099.44;;;16.61
79714;BMP280;69206;51.420;5.400;2023-05-10T11:51:03;101129.63;;;16.52
79714;BMP280;69206;51.420;5.400;2023-05-10T11:53:32;101138.31;;;16.22
79714;BMP280;69206;51.420;5.400;2023-05-10T11:56:09;101135.28;;;16.41
79714;BMP280;69206;51.420;5.400;2023-05-10T11:58:36;101142.38;;;16.87
79714;BMP280;69206;51.420;5.400;2023-05-10T12:01:03;101126.22;;;16.74
79714;BMP280;69206;51.420;5.400;2023-05-10T12:03:29;101138.34;;;16.99
79714;BMP280;69206;51.420;5.400;2023-05-10T12:05:56;101144.22;;;16.48
79714;BMP280;69206;51.420;5.400;2023-05-10T12:08:26;101144.16;;;16.64
79714;BMP280;69206;51.420;5.400;2023-05-10T12:10:52;101146.38;;;16.83
79714;BMP280;69206;51.420;5.400;2023-05-10T12:13:19;101147.59;;;16.95
79714;BMP280;69206;51.420;5.400;2023-05-10T12:15:46;101119.25;;;17.03
79714;BMP280;69206;51.420;5.400;2023-05-10T12:18:13;101129.97;;;17.10
79714;BMP280;69206;51.420;5.400;2023-05-10T12:20:39;101138.72;;;17.40
79714;BMP280;69206;51.420;5.400;2023-05-10T12:23:05;101146.34;;;17.35
79714;BMP280;69206;51.420;5.400;2023-05-10T12:25:32;101140.56;;;17.54
79714;BMP280;69206;51.420;5.400;2023-05-10T12:27:59;101146.84;;;17.90
79714;BMP280;69206;51.420;5.400;2023-05-10T12:30:28;101149.72;;;18.47
79714;BMP280;69206;51.420;5.400;2023-05-10T12:33:00;101155.22;;;17.50
79714;BMP280;69206;51.420;5.400;2023-05-10T12:35:29;101165.19;;;16.96
79714;BMP280;69206;51.420;5.400;2023-05-10T12:37:55;101165.22;;;16.88
79714;BMP280;69206;51.420;5.400;2023-05-10T12:40:20;101171.44;;;16.64
79714;BMP280;69206;51.420;5.400;2023-05-10T12:42:46;101177.09;;;16.69
79714;BMP280;69206;51.420;5.400;2023-05-10T12:45:11;101167.09;;;16.41
79714;BMP280;69206;51.420;5.400;2023-05-10T12:47:37;101179.72;;;16.15
79714;BMP280;69206;51.420;5.400;2023-05-10T12:50:03;101173.41;;;16.08
79714;BMP280;69206;51.420;5.400;2023-05-10T12:52:30;101169.16;;;15.99
79714;BMP280;69206;51.420;5.400;2023-05-10T12:54:57;101174.16;;;16.02
79714;BMP280;69206;51.420;5.400;2023-05-10T12:57:23;101159.56;;;15.66
79714;BMP280;69206;51.420;5.400;2023-05-10T12:59:48;101175.28;;;15.67
79714;BMP280;69206;51.420;5.400;2023-05-10T13:02:14;101164.19;;;15.48
79714;BMP280;69206;51.420;5.400;2023-05-10T13:04:40;101167.84;;;15.47
79714;BMP280;69206;51.420;5.400;2023-05-10T13:07:07;101178.38;;;15.39
79714;BMP280;69206;51.420;5.400;2023-05-10T13:09:32;101174.56;;;15.25
79714;BMP280;69206;51.420;5.400;2023-05-10T13:11:58;101174.72;;;15.16
79714;BMP280;69206;51.420;5.400;2023-05-10T13:14:24;101178.22;;;15.24
79714;BMP280;69206;51.420;5.400;2023-05-10T13:16:49;101145.19;;;14.79
79714;BMP280;69206;51.420;5.400;2023-05-10T13:19:16;101184.13;;;14.77
79714;BMP280;69206;51.420;5.400;2023-05-10T13:21:42;101186.41;;;14.64
79714;BMP280;69206;51.420;5.400;2023-05-10T13:24:09;101202.31;;;14.47
79714;BMP280;69206;51.420;5.400;2023-05-10T13:26:36;101172.69;;;14.35
79714;BMP280;69206;51.420;5.400;2023-05-10T13:29:02;101199.16;;;14.43
79714;BMP280;69206;51.420;5.400;2023-05-10T13:31:27;101205.25;;;14.44
79714;BMP280;69206;51.420;5.400;2023-05-10T13:33:52;101208.97;;;14.33
79714;BMP280;69206;51.420;5.400;2023-05-10T13:36:18;101208.50;;;14.12
79714;BMP280;69206;51.420;5.400;2023-05-10T13:38:43;101211.28;;;14.11
79714;BMP280;69206;51.420;5.400;2023-05-10T13:41:09;101206.91;;;14.02
79714;BMP280;69206;51.420;5.400;2023-05-10T13:43:35;101224.25;;;14.04
79714;BMP280;69206;51.420;5.400;2023-05-10T13:46:01;101216.81;;;13.82
79714;BMP280;69206;51.420;5.400;2023-05-10T13:48:26;101213.25;;;13.74
79714;BMP280;69206;51.420;5.400;2023-05-10T13:50:52;101206.88;;;13.76
79714;BMP280;69206;51.420;5.400;2023-05-10T13:53:17;101204.91;;;13.78
79714;BMP280;69206;51.420;5.400;2023-05-10T13:55:43;101201.66;;;13.67
79714;BMP280;69206;51.420;5.400;2023-05-10T13:58:08;101208.34;;;13.61
79714;BMP280;69206;51.420;5.400;2023-05-10T14:00:34;101207.78;;;13.67
79714;BMP280;69206;51.420;5.400;2023-05-10T14:02:59;101211.78;;;13.71
79714;BMP280;69206;51.420;5.400;2023-05-10T14:05:25;101212.34;;;13.65
79714;BMP280;69206;51.420;5.400;2023-05-10T14:07:50;101215.75;;;13.75
79714;BMP280;69206;51.420;5.400;2023-05-10T14:10:16;101216.03;;;13.72
79714;BMP280;69206;51.420;5.400;2023-05-10T14:12:41;101199.47;;;13.62
79714;BMP280;69206;51.420;5.400;2023-05-10T14:15:07;101170.31;;;13.46
79714;BMP280;69206;51.420;5.400;2023-05-10T14:17:32;101209.13;;;13.71
79714;BMP280;69206;51.420;5.400;2023-05-10T14:19:58;101206.25;;;13.82
79714;BMP280;69206;51.420;5.400;2023-05-10T14:22:23;101200.63;;;13.77